Time;durP1;ratioP1;P1;durP2;ratioP2;P2;SDS_P1;SDS_P2;PMS_P1;PMS_P2;Temp;Humidity;BMP_temperature;BMP_pressure;BME280_temperature;BME280_humidity;BME280_pressure;Samples;Min_cycle;Max_cycle;Signal;HPM_P1;HPM_P2
2022/06/07 00:01:05;;;;;;;31.88;29.58;;;;;;;18.59;52.02;101229.97;5075123;28;20071;-74
2022/06/07 00:03:31;;;;;;;36.63;33.50;;;;;;;18.57;52.08;101224.78;5053454;28;20047;-74
2022/06/07 00:05:56;;;;;;;31.85;29.35;;;;;;;18.57;52.20;101226.69;5087411;28;20037;-75
2022/06/07 00:08:22;;;;;;;33.08;30.55;;;;;;;18.55;51.79;101215.22;5070648;28;20460;-75
2022/06/07 00:10:49;;;;;;;31.17;28.98;;;;;;;18.55;51.83;101220.72;5071762;28;20040;-74
2022/06/07 00:13:16;;;;;;;31.23;29.08;;;;;;;18.53;51.96;101218.25;5071241;28;20039;-74
2022/06/07 00:15:43;;;;;;;34.30;31.70;;;;;;;18.52;51.91;101211.16;5071623;28;20541;-74
2022/06/07 00:18:09;;;;;;;34.25;31.50;;;;;;;18.51;51.98;101217.69;5074622;28;20105;-74
2022/06/07 00:20:35;;;;;;;31.98;29.63;;;;;;;18.51;51.87;101214.97;5085324;28;20133;-74
2022/06/07 00:23:04;;;;;;;32.42;29.98;;;;;;;18.51;51.68;101214.97;5070410;28;20046;-75
2022/06/07 00:25:29;;;;;;;34.50;31.65;;;;;;;18.49;51.89;101211.69;5071949;28;20115;-74
2022/06/07 00:27:54;;;;;;;32.05;29.52;;;;;;;18.48;52.20;101210.06;5071488;28;20437;-74
2022/06/07 00:30:20;;;;;;;34.45;31.52;;;;;;;18.47;51.95;101208.44;5084017;28;20093;-75
2022/06/07 00:32:46;;;;;;;33.38;30.65;;;;;;;18.48;51.96;101198.31;5071375;28;20439;-75
2022/06/07 00:35:12;;;;;;;31.20;29.00;;;;;;;18.46;52.17;101198.59;5060957;28;20123;-74
2022/06/07 00:37:37;;;;;;;33.20;30.55;;;;;;;18.45;51.83;101194.25;5071355;28;20033;-74
2022/06/07 00:40:05;;;;;;;31.88;29.38;;;;;;;18.44;52.13;101192.59;5072748;28;20043;-75
2022/06/07 00:42:30;;;;;;;32.45;29.77;;;;;;;18.43;51.99;101181.94;5070126;28;20028;-74
2022/06/07 00:44:55;;;;;;;31.63;29.17;;;;;;;18.42;52.11;101188.50;5072505;28;20477;-74
2022/06/07 00:47:24;;;;;;;32.85;30.23;;;;;;;18.40;51.93;101186.06;5067015;28;20075;-75
2022/06/07 00:50:18;;;;;;;32.22;29.92;;;;;;;18.41;52.16;101192.34;5075708;28;20040;-75
2022/06/07 00:52:45;;;;;;;32.08;29.40;;;;;;;18.39;51.92;101178.94;5047918;28;20140;-75
2022/06/07 00:55:10;;;;;;;29.65;27.45;;;;;;;18.38;51.74;101180.88;5079531;28;20115;-74
2022/06/07 00:57:37;;;;;;;33.20;30.40;;;;;;;18.37;52.01;101178.44;5064771;28;20127;-74
2022/06/07 01:00:08;;;;;;;29.42;27.27;;;;;;;18.37;52.04;101172.97;5074507;28;20060;-75
2022/06/07 01:02:33;;;;;;;30.90;28.70;;;;;;;18.36;52.18;101177.59;5079098;28;20107;-74
2022/06/07 01:04:59;;;;;;;30.73;28.42;;;;;;;18.36;52.09;101174.06;5083486;28;20564;-76
2022/06/07 01:12:52;;;;;;;30.70;28.23;;;;;;;18.31;51.70;101158.50;5061502;28;20538;-75
2022/06/07 01:15:18;;;;;;;32.45;29.73;;;;;;;18.30;52.14;101162.34;5070692;28;20041;-76
2022/06/07 01:17:43;;;;;;;29.98;27.67;;;;;;;18.30;51.86;101164.25;5067962;28;20479;-74
2022/06/07 01:20:10;;;;;;;30.52;28.33;;;;;;;18.30;51.89;101167.00;5073470;28;20468;-75
2022/06/07 01:22:35;;;;;;;30.52;28.13;;;;;;;18.28;51.99;101166.47;5059067;28;20040;-75
2022/06/07 01:25:01;;;;;;;31.27;28.88;;;;;;;18.27;51.96;101160.19;5076150;28;20043;-75
2022/06/07 01:27:26;;;;;;;31.73;29.02;;;;;;;18.26;52.08;101152.25;5064989;28;20392;-77
2022/06/07 01:29:52;;;;;;;30.98;28.80;;;;;;;18.25;52.15;101156.09;5074974;28;20042;-75
2022/06/07 01:32:18;;;;;;;30.52;28.33;;;;;;;18.25;52.03;101156.09;5081000;28;20114;-74
2022/06/07 01:34:45;;;;;;;30.88;28.23;;;;;;;18.23;51.91;101159.09;5075368;28;20064;-74
2022/06/07 01:37:12;;;;;;;29.73;27.42;;;;;;;18.23;52.11;101152.81;5072856;28;20037;-74
2022/06/07 01:42:21;;;;;;;29.42;27.00;;;;;;;18.19;52.12;101158.03;5060799;28;20387;-73
2022/06/07 01:44:48;;;;;;;29.98;27.88;;;;;;;18.17;52.23;101147.38;5074314;28;20123;-73
2022/06/07 01:47:20;;;;;;;28.85;26.60;;;;;;;18.16;51.97;101148.47;5072347;28;20162;-74
2022/06/07 01:49:46;;;;;;;29.77;27.67;;;;;;;18.17;52.05;101143.84;5073863;28;20047;-73
2022/06/07 01:52:13;;;;;;;29.20;27.27;;;;;;;18.16;51.95;101159.41;5073034;28;20051;-75
2022/06/07 01:54:39;;;;;;;30.00;27.73;;;;;;;18.15;51.97;101148.78;5078284;28;20040;-74
2022/06/07 01:57:08;;;;;;;28.30;26.48;;;;;;;18.15;51.83;101146.03;5074019;28;20048;-74
2022/06/07 01:59:34;;;;;;;;;;;;;;;18.13;51.87;101142.75;5071530;28;20174;-73
2022/06/07 02:01:59;;;;;;;28.13;26.10;;;;;;;18.11;51.99;101131.28;5079895;28;19912;-74
2022/06/07 02:04:25;;;;;;;27.30;25.67;;;;;;;18.11;51.83;101136.75;5056481;28;20028;-74
2022/06/07 02:06:50;;;;;;;28.08;26.38;;;;;;;18.09;51.88;101137.06;5073873;28;20481;-74
2022/06/07 02:09:17;;;;;;;28.50;26.42;;;;;;;18.09;51.66;101131.59;5072720;28;20346;-74
2022/06/07 02:11:43;;;;;;;29.63;26.75;;;;;;;18.08;51.83;101132.69;5074223;28;20040;-74
2022/06/07 02:14:09;;;;;;;27.90;26.13;;;;;;;18.08;52.00;101135.41;5073380;28;20037;-74
2022/06/07 02:16:35;;;;;;;28.17;26.50;;;;;;;18.06;51.69;101126.66;5071974;28;20448;-74
2022/06/07 02:19:00;;;;;;;27.15;25.13;;;;;;;18.06;51.78;101131.31;5070802;28;20043;-74
2022/06/07 02:21:26;;;;;;;27.35;25.45;;;;;;;18.06;51.83;101129.41;5066386;28;20473;-74
2022/06/07 02:23:52;;;;;;;29.13;26.98;;;;;;;18.04;51.88;101128.91;5088929;28;20358;-74
2022/06/07 02:26:22;;;;;;;28.67;26.77;;;;;;;18.05;51.82;101125.03;5074013;28;20037;-74
2022/06/07 02:28:53;;;;;;;27.90;26.25;;;;;;;18.04;51.76;101133.53;5073512;28;20370;-74
2022/06/07 02:31:20;;;;;;;26.52;25.02;;;;;;;18.02;51.93;101131.09;5074495;28;20079;-74
2022/06/07 02:33:45;;;;;;;27.95;25.95;;;;;;;18.02;52.06;101125.63;5073235;28;20040;-74
2022/06/07 02:36:12;;;;;;;25.95;24.23;;;;;;;18.01;52.05;101118.50;5074224;28;20068;-75
2022/06/07 02:38:39;;;;;;;27.35;25.70;;;;;;;18.01;51.77;101117.69;5073468;28;20021;-74
2022/06/07 02:41:07;;;;;;;26.85;25.08;;;;;;;18.00;52.07;101111.41;5073630;28;20490;-74
2022/06/07 02:43:32;;;;;;;;;;;;;;;17.98;51.75;101113.59;5078966;28;20025;-73
2022/06/07 02:45:58;;;;;;;24.92;23.33;;;;;;;17.98;51.97;101110.06;5076108;28;20014;-74
2022/06/07 02:48:24;;;;;;;26.52;24.83;;;;;;;17.95;51.74;101109.53;5073977;28;20461;-75
2022/06/07 02:50:52;;;;;;;27.15;25.50;;;;;;;17.95;51.68;101114.19;5071564;28;20485;-74
2022/06/07 02:53:17;;;;;;;25.45;23.90;;;;;;;17.93;51.93;101111.72;5074136;28;20101;-74
2022/06/07 02:55:43;;;;;;;28.65;26.75;;;;;;;17.94;51.72;101109.78;5054900;28;20469;-73
2022/06/07 02:58:08;;;;;;;27.27;24.80;;;;;;;17.93;51.86;101110.91;5072542;28;20036;-75
2022/06/07 03:00:34;;;;;;;26.88;25.20;;;;;;;17.92;52.03;101112.84;5072006;28;20040;-74
2022/06/07 03:02:59;;;;;;;26.30;24.42;;;;;;;17.91;52.01;101119.38;5072010;28;20040;-74
2022/06/07 03:05:25;;;;;;;25.13;23.70;;;;;;;17.90;51.99;101123.22;5073403;28;20020;-74
2022/06/07 03:07:50;;;;;;;27.00;25.27;;;;;;;17.90;51.61;101128.69;5072200;28;20040;-74
2022/06/07 03:10:17;;;;;;;25.40;23.90;;;;;;;17.88;51.62;101124.59;5071792;28;20028;-74
2022/06/07 03:12:42;;;;;;;26.52;24.63;;;;;;;17.87;51.67;101125.72;5071192;28;20054;-74
2022/06/07 03:15:08;;;;;;;26.08;24.40;;;;;;;17.87;51.90;101125.72;5060357;28;20476;-74
2022/06/07 03:17:34;;;;;;;25.30;23.70;;;;;;;17.86;51.80;101133.06;5072647;28;20037;-75
2022/06/07 03:20:00;;;;;;;24.13;22.77;;;;;;;17.85;51.77;101123.25;5056898;28;20536;-74
2022/06/07 03:22:25;;;;;;;26.15;24.45;;;;;;;17.85;51.96;101119.72;5070547;28;20040;-74
2022/06/07 03:24:51;;;;;;;26.38;24.40;;;;;;;17.83;51.67;101125.44;5071431;28;20036;-74
2022/06/07 03:27:16;;;;;;;25.67;23.55;;;;;;;17.83;51.77;101127.38;5071539;28;20036;-74
2022/06/07 03:29:42;;;;;;;26.13;24.65;;;;;;;17.82;51.87;101131.22;5072691;28;20090;-74
2022/06/07 03:32:08;;;;;;;25.35;23.92;;;;;;;17.81;51.61;101135.84;5084126;28;20036;-74
2022/06/07 03:34:35;;;;;;;25.52;23.90;;;;;;;17.81;51.51;101140.50;5072753;28;20080;-74
2022/06/07 03:37:00;;;;;;;27.42;25.60;;;;;;;17.80;51.71;101138.88;5071253;28;20534;-74
2022/06/07 03:39:26;;;;;;;24.55;23.13;;;;;;;17.78;51.45;101133.66;5070997;28;20036;-74
2022/06/07 03:41:52;;;;;;;26.85;25.02;;;;;;;17.77;51.61;101137.50;5071164;28;20032;-74
2022/06/07 03:44:18;;;;;;;25.13;23.52;;;;;;;17.77;51.62;101147.59;5071684;28;20028;-74
2022/06/07 03:46:45;;;;;;;23.98;22.58;;;;;;;17.76;51.68;101140.50;5080168;28;20039;-74
2022/06/07 03:49:10;;;;;;;25.95;24.02;;;;;;;17.75;51.71;101147.88;5072141;28;20042;-74
2022/06/07 03:51:36;;;;;;;24.95;23.45;;;;;;;17.73;51.84;101141.88;5071577;28;20493;-74
2022/06/07 03:54:02;;;;;;;25.42;23.83;;;;;;;17.73;51.68;101144.59;5059911;28;20515;-74
2022/06/07 03:56:28;;;;;;;24.42;23.02;;;;;;;17.72;51.53;101153.91;5069112;28;20036;-74
2022/06/07 03:58:54;;;;;;;25.38;23.63;;;;;;;17.70;51.85;101151.44;5072074;28;20085;-74
2022/06/07 04:01:23;;;;;;;24.45;23.00;;;;;;;17.70;51.81;101153.38;5072013;28;20052;-74
2022/06/07 04:03:50;;;;;;;25.95;24.45;;;;;;;17.68;51.82;101153.63;5070127;28;20028;-74
2022/06/07 04:06:25;;;;;;;25.45;24.05;;;;;;;17.68;51.40;101159.09;5072182;28;20037;-74
2022/06/07 04:08:50;;;;;;;26.35;24.75;;;;;;;17.67;51.46;101152.00;5071338;28;20378;-74
2022/06/07 04:11:20;;;;;;;25.00;23.52;;;;;;;17.68;51.79;101148.16;5070663;28;20044;-74
2022/06/07 04:13:46;;;;;;;25.60;23.88;;;;;;;17.66;51.73;101150.34;5070850;28;20033;-74
2022/06/07 04:16:16;;;;;;;26.23;24.67;;;;;;;17.65;51.64;101154.19;5085974;28;20089;-74
2022/06/07 04:18:42;;;;;;;24.00;22.65;;;;;;;17.64;51.70;101147.13;5071802;28;20028;-74
2022/06/07 04:21:08;;;;;;;25.48;23.65;;;;;;;17.64;51.74;101144.38;5070765;28;20067;-74
2022/06/07 04:23:34;;;;;;;24.20;22.70;;;;;;;17.63;51.73;101147.38;5071186;28;20037;-74
2022/06/07 04:26:11;;;;;;;24.23;22.73;;;;;;;17.61;51.58;101147.66;5070530;28;20043;-74
2022/06/07 04:28:37;;;;;;;22.43;21.23;;;;;;;17.61;51.53;101149.56;5071860;28;20060;-74
2022/06/07 04:31:03;;;;;;;23.88;22.48;;;;;;;17.60;51.57;101148.75;5071417;28;20056;-74
2022/06/07 04:33:28;;;;;;;25.30;23.60;;;;;;;17.60;51.73;101146.03;5071703;28;20032;-74
2022/06/07 04:35:54;;;;;;;24.10;22.70;;;;;;;17.60;51.80;101151.50;5070691;28;20040;-74
2022/06/07 04:38:19;;;;;;;24.55;22.70;;;;;;;17.58;51.99;101152.88;5071778;28;20025;-74
2022/06/07 04:40:45;;;;;;;24.15;22.55;;;;;;;17.58;51.68;101164.59;5071732;28;20036;-74
2022/06/07 04:43:12;;;;;;;23.27;21.88;;;;;;;17.58;51.99;101159.13;5069962;28;20119;-74
2022/06/07 04:45:38;;;;;;;23.63;22.17;;;;;;;17.56;51.61;101161.34;5071182;28;20138;-74
2022/06/07 04:48:05;;;;;;;24.52;23.02;;;;;;;17.56;51.85;101171.44;5070229;28;20469;-75
2022/06/07 04:50:30;;;;;;;24.20;22.70;;;;;;;17.55;51.79;101167.09;5071298;28;20040;-74
2022/06/07 04:52:56;;;;;;;24.50;22.88;;;;;;;17.54;51.81;101163.53;5071262;28;20032;-75
2022/06/07 04:55:21;;;;;;;24.27;22.70;;;;;;;17.52;51.78;101166.53;5071090;28;20139;-74
2022/06/07 04:57:47;;;;;;;22.25;21.02;;;;;;;17.52;51.73;101163.81;5064357;28;20097;-78
2022/06/07 05:00:15;;;;;;;25.13;23.23;;;;;;;17.53;51.70;101170.09;5070174;28;20045;-74
2022/06/07 05:02:44;;;;;;;23.57;22.13;;;;;;;17.51;51.77;101178.59;5071636;28;20544;-74
2022/06/07 05:05:12;;;;;;;25.20;23.35;;;;;;;17.49;51.85;101161.66;5080831;28;20040;-74
2022/06/07 05:07:39;;;;;;;24.90;22.95;;;;;;;17.50;51.78;101167.91;5085850;28;20029;-74
2022/06/07 05:10:11;;;;;;;24.80;22.83;;;;;;;17.50;51.95;101167.91;5070689;28;20028;-74
2022/06/07 05:12:37;;;;;;;23.80;22.30;;;;;;;17.49;51.94;101171.75;5071548;28;20036;-74
2022/06/07 05:15:05;;;;;;;25.40;22.95;;;;;;;17.48;52.03;101175.56;5081551;28;20093;-75
2022/06/07 05:17:30;;;;;;;24.53;22.70;;;;;;;17.48;52.10;101167.38;5069162;28;20051;-74
2022/06/07 05:19:56;;;;;;;25.05;23.33;;;;;;;17.46;51.83;101167.66;5070601;28;20038;-74
2022/06/07 05:22:22;;;;;;;23.25;21.80;;;;;;;17.46;51.67;101184.06;5070608;28;20157;-78
2022/06/07 05:24:48;;;;;;;23.65;22.25;;;;;;;17.46;52.02;101181.31;5065421;28;20033;-74
2022/06/07 05:27:16;;;;;;;23.00;21.65;;;;;;;17.45;51.78;101176.94;5066610;28;20431;-74
2022/06/07 05:29:50;;;;;;;23.52;22.02;;;;;;;17.46;52.09;101177.75;5065064;28;20040;-74
2022/06/07 05:32:17;;;;;;;24.27;22.77;;;;;;;17.45;52.13;101171.47;5066853;28;20034;-74
2022/06/07 05:34:43;;;;;;;24.00;22.50;;;;;;;17.44;52.09;101178.06;5074427;28;20120;-74
2022/06/07 05:37:14;;;;;;;26.17;24.42;;;;;;;17.45;51.77;101181.59;5070137;28;20056;-74
2022/06/07 05:39:39;;;;;;;22.73;21.42;;;;;;;17.43;51.93;101179.13;5071246;28;20083;-74
2022/06/07 05:42:05;;;;;;;25.15;23.40;;;;;;;17.44;51.46;101188.97;5070847;28;20536;-74
2022/06/07 05:44:30;;;;;;;25.63;23.58;;;;;;;17.44;51.89;101179.97;5072578;28;20048;-75
2022/06/07 05:46:56;;;;;;;25.77;24.10;;;;;;;17.43;51.98;101183.78;5069950;28;20035;-74
2022/06/07 05:49:22;;;;;;;25.45;23.85;;;;;;;17.43;52.05;101192.78;5052866;28;20115;-75
2022/06/07 05:51:47;;;;;;;26.55;24.35;;;;;;;17.42;51.96;101188.44;5071728;28;20032;-74
2022/06/07 05:54:14;;;;;;;26.27;24.42;;;;;;;17.43;51.87;101191.97;5069705;28;20064;-75
2022/06/07 05:56:40;;;;;;;23.42;22.13;;;;;;;17.42;51.87;101193.91;5072333;28;20032;-74
2022/06/07 05:59:06;;;;;;;27.45;25.15;;;;;;;17.42;52.12;101204.81;5069950;28;20036;-75
2022/06/07 06:01:33;;;;;;;26.00;24.02;;;;;;;17.41;52.06;101196.88;5071304;28;20034;-74
2022/06/07 06:03:59;;;;;;;27.20;25.40;;;;;;;17.41;52.05;101184.06;5067899;28;20592;-75
2022/06/07 06:06:25;;;;;;;24.45;22.73;;;;;;;17.42;52.28;101184.88;5070202;28;20049;-75
2022/06/07 06:11:36;;;;;;;23.52;21.98;;;;;;;17.43;52.40;101178.31;5070863;28;20507;-76
2022/06/07 06:14:02;;;;;;;29.77;27.08;;;;;;;17.41;52.32;101175.03;5071639;28;20037;-75
2022/06/07 06:16:28;;;;;;;26.38;24.48;;;;;;;17.42;52.37;101182.16;5068724;28;20060;-77
2022/06/07 06:18:58;;;;;;;28.65;25.98;;;;;;;17.42;52.65;101176.69;5069933;28;20063;-68
2022/06/07 06:21:31;;;;;;;25.88;23.80;;;;;;;17.42;52.29;101182.16;5067539;28;20492;-75
2022/06/07 06:23:58;;;;;;;26.27;24.45;;;;;;;17.42;52.52;101173.97;5069006;28;20047;-78
2022/06/07 06:26:23;;;;;;;27.95;25.77;;;;;;;17.42;52.65;101177.50;5070040;28;20039;-75
2022/06/07 06:28:49;;;;;;;26.27;24.30;;;;;;;17.43;52.48;101173.66;5069351;28;20048;-74
2022/06/07 06:31:15;;;;;;;26.92;24.88;;;;;;;17.43;52.55;101168.22;5065996;28;20464;-75
2022/06/07 06:33:44;;;;;;;26.63;24.52;;;;;;;17.44;52.93;101167.13;5068520;28;20457;-76
2022/06/07 06:36:18;;;;;;;28.38;26.27;;;;;;;17.44;52.98;101169.84;5068048;28;20478;-75
2022/06/07 06:38:44;;;;;;;27.30;24.65;;;;;;;17.43;52.96;101165.47;5071970;28;20081;-75
2022/06/07 06:41:22;;;;;;;32.00;28.90;;;;;;;17.45;53.67;101176.13;5067581;28;20472;-75
2022/06/07 06:43:48;;;;;;;27.52;25.42;;;;;;;17.46;53.55;101188.69;5068178;28;20514;-75
2022/06/07 06:46:23;;;;;;;29.65;27.15;;;;;;;17.47;53.56;101182.13;5067379;28;20526;-75
2022/06/07 06:48:49;;;;;;;27.05;25.00;;;;;;;17.47;53.24;101173.94;5065810;28;20392;-75
2022/06/07 06:51:17;;;;;;;31.33;28.58;;;;;;;17.47;53.72;101171.22;5068112;28;20028;-77
2022/06/07 06:53:43;;;;;;;26.85;24.65;;;;;;;17.49;53.48;101182.69;5067805;28;20029;-76
2022/06/07 06:56:11;;;;;;;27.33;25.23;;;;;;;17.50;53.51;101184.31;5070405;28;20480;-74
2022/06/07 06:58:37;;;;;;;29.33;26.80;;;;;;;17.52;53.44;101193.03;5066899;28;20472;-76
2022/06/07 07:01:09;;;;;;;31.20;28.35;;;;;;;17.53;53.75;101194.66;5069410;28;20041;-75
2022/06/07 07:03:36;;;;;;;29.00;26.48;;;;;;;17.55;53.70;101197.94;5069217;28;20028;-75
2022/06/07 07:06:03;;;;;;;28.15;26.05;;;;;;;17.56;53.43;101196.84;5069287;28;20033;-78
2022/06/07 07:08:28;;;;;;;26.95;25.05;;;;;;;17.57;53.54;101192.22;5064660;28;20047;-75
2022/06/07 07:11:17;;;;;;;29.75;27.33;;;;;;;17.59;53.81;101198.19;5070556;28;20447;-75
2022/06/07 07:13:43;;;;;;;31.13;28.75;;;;;;;17.59;53.39;101196.31;5064675;28;20158;-75
2022/06/07 07:16:10;;;;;;;32.35;29.45;;;;;;;17.62;53.99;101201.22;5069307;28;20028;-75
2022/06/07 07:18:36;;;;;;;27.90;25.87;;;;;;;17.62;53.85;101201.22;5051637;28;20029;-75
2022/06/07 07:21:07;;;;;;;29.67;27.38;;;;;;;17.63;53.95;101194.63;5079483;28;20056;-79
2022/06/07 07:23:33;;;;;;;28.17;26.08;;;;;;;17.66;54.15;101207.72;5068524;28;20476;-75
2022/06/07 07:26:09;;;;;;;32.53;29.85;;;;;;;17.68;53.95;101199.25;5069425;28;20119;-75
2022/06/07 07:28:37;;;;;;;28.60;26.17;;;;;;;17.69;54.01;101201.72;5068704;28;20396;-75
2022/06/07 07:31:06;;;;;;;29.38;26.92;;;;;;;17.71;53.70;101202.28;5068892;28;20059;-78
2022/06/07 07:33:31;;;;;;;36.60;32.83;;;;;;;17.73;54.34;101205.53;5071816;28;20116;-75
2022/06/07 07:36:00;;;;;;;28.48;26.30;;;;;;;17.73;54.23;101205.53;5067997;28;20048;-76
2022/06/07 07:38:25;;;;;;;;;;;;;;;17.75;53.82;101213.44;5069391;28;20488;-76
2022/06/07 07:40:51;;;;;;;27.83;25.85;;;;;;;17.76;53.72;101209.59;5068553;28;19916;-74
2022/06/07 07:43:18;;;;;;;36.10;32.25;;;;;;;17.78;53.94;101206.59;5064818;28;20458;-75
2022/06/07 07:45:44;;;;;;;34.85;31.50;;;;;;;17.79;54.06;101200.03;5065865;28;20048;-76
2022/06/07 07:48:09;;;;;;;31.63;28.58;;;;;;;17.80;54.11;101199.78;5069001;28;20091;-78
2022/06/07 07:50:36;;;;;;;31.63;29.05;;;;;;;17.82;53.96;101194.06;5071701;28;20059;-74
2022/06/07 07:53:02;;;;;;;35.80;32.40;;;;;;;17.85;54.43;101198.97;5067625;28;20090;-75
2022/06/07 07:55:27;;;;;;;31.60;28.98;;;;;;;17.85;54.22;101197.03;5064450;28;20427;-75
2022/06/07 07:57:52;;;;;;;37.05;33.67;;;;;;;17.87;54.40;101199.50;5060775;28;20120;-75
2022/06/07 08:00:18;;;;;;;34.70;31.83;;;;;;;17.89;54.34;101202.75;5066079;28;20048;-75
2022/06/07 08:02:43;;;;;;;33.00;30.17;;;;;;;17.91;54.44;101206.03;5070332;28;20420;-75
2022/06/07 08:05:10;;;;;;;31.75;28.98;;;;;;;17.93;54.59;101201.09;5064638;28;20032;-75
2022/06/07 08:07:35;;;;;;;29.45;27.10;;;;;;;17.94;54.14;101200.84;5067638;28;20046;-74
2022/06/07 08:10:02;;;;;;;33.63;30.30;;;;;;;17.97;54.24;101199.44;5069063;28;20040;-75
2022/06/07 08:12:29;;;;;;;30.42;27.85;;;;;;;17.99;54.29;101204.63;5068522;28;20101;-75
2022/06/07 08:14:54;;;;;;;36.05;32.65;;;;;;;18.01;54.45;101202.44;5068299;28;20032;-76
2022/06/07 08:17:20;;;;;;;35.65;31.85;;;;;;;18.03;54.66;101200.22;5064665;28;20060;-76
2022/06/07 08:19:45;;;;;;;28.83;26.63;;;;;;;18.06;54.90;101205.13;5067683;28;20036;-75
2022/06/07 08:22:11;;;;;;;33.10;30.13;;;;;;;18.08;54.94;101197.47;5067419;28;20052;-80
2022/06/07 08:24:37;;;;;;;34.85;31.85;;;;;;;18.09;55.01;101204.56;5068544;28;20070;-75
2022/06/07 08:27:03;;;;;;;34.65;31.55;;;;;;;18.11;54.82;101199.63;5069219;28;20110;-75
2022/06/07 08:29:28;;;;;;;29.80;27.20;;;;;;;18.12;54.98;101193.91;5063632;28;20423;-76
2022/06/07 08:31:53;;;;;;;33.60;30.67;;;;;;;18.15;54.98;101200.72;5071514;28;20055;-75
2022/06/07 08:37:37;;;;;;;31.45;28.90;;;;;;;18.17;54.83;101201.25;5001259;28;20040;-76
2022/06/07 08:40:09;;;;;;;33.72;30.77;;;;;;;18.18;54.52;101194.69;5052573;28;20139;-77
2022/06/07 08:42:37;;;;;;;39.83;35.67;;;;;;;18.19;55.04;101190.03;5063434;28;20044;-75
2022/06/07 08:45:24;;;;;;;37.70;32.47;;;;;;;18.21;55.10;101187.81;5066739;28;20082;-75
2022/06/07 08:47:53;;;;;;;35.50;32.17;;;;;;;18.24;55.38;101188.06;5063886;28;20060;-76
2022/06/07 08:50:27;;;;;;;31.88;29.65;;;;;;;18.26;54.96;101193.25;5062816;28;20158;-77
2022/06/07 08:53:00;;;;;;;30.67;28.45;;;;;;;18.28;54.84;101186.41;5059216;28;20033;-75
2022/06/07 08:55:34;;;;;;;35.50;32.42;;;;;;;18.31;54.88;101193.22;5066974;28;20531;-75
2022/06/07 08:58:14;;;;;;;35.72;32.60;;;;;;;18.33;54.88;101194.56;5061723;28;20447;-76
2022/06/07 09:00:42;;;;;;;32.58;29.80;;;;;;;18.36;55.23;101187.72;5055414;28;20060;-77
2022/06/07 09:03:25;;;;;;;38.88;35.28;;;;;;;18.37;55.32;101187.44;5065267;28;20033;-82
2022/06/07 09:05:55;;;;;;;34.17;31.35;;;;;;;18.42;55.61;101188.50;5066654;28;20029;-75
2022/06/07 09:08:21;;;;;;;33.30;30.42;;;;;;;18.41;55.22;101178.66;5064757;28;20109;-78
2022/06/07 09:13:34;;;;;;;38.75;34.75;;;;;;;18.47;55.62;101191.19;5065143;28;20055;-76
2022/06/07 09:16:01;;;;;;;44.72;35.72;;;;;;;18.48;55.25;101182.72;5066126;28;20064;-77
2022/06/07 09:18:30;;;;;;;39.63;35.88;;;;;;;18.51;55.58;101182.13;5070471;28;20127;-75
2022/06/07 09:21:24;;;;;;;36.38;33.15;;;;;;;18.54;55.99;101178.03;5069766;28;20048;-76
2022/06/07 09:23:52;;;;;;;33.08;30.65;;;;;;;18.56;55.41;101173.91;5063442;28;20044;-75
2022/06/07 09:26:18;;;;;;;39.40;36.05;;;;;;;18.59;56.04;101187.00;5070201;28;20062;-75
2022/06/07 09:28:46;;;;;;;33.50;31.00;;;;;;;18.61;55.88;101178.50;5069465;28;20090;-76
2022/06/07 09:31:16;;;;;;;33.73;31.13;;;;;;;18.65;55.70;101176.00;5069443;28;20025;-82
2022/06/07 09:33:54;;;;;;;37.28;33.97;;;;;;;18.68;55.66;101178.19;5087249;28;20051;-72
2022/06/07 09:36:27;;;;;;;33.95;31.15;;;;;;;18.69;55.15;101177.09;5071178;28;20068;-75
2022/06/07 09:39:12;;;;;;;33.13;30.67;;;;;;;18.72;55.16;101177.34;5067719;28;20031;-79
2022/06/07 09:41:42;;;;;;;33.33;30.50;;;;;;;18.75;55.45;101175.94;5067771;28;20048;-76
2022/06/07 09:44:29;;;;;;;28.92;26.95;;;;;;;18.80;54.96;101178.69;5071417;28;20052;-76
2022/06/07 09:47:00;;;;;;;33.55;31.20;;;;;;;18.81;54.48;101172.09;5072275;28;20033;-75
2022/06/07 09:49:40;;;;;;;34.63;32.00;;;;;;;18.85;54.93;101164.94;5068824;28;20028;-75
2022/06/07 09:52:23;;;;;;;31.90;29.73;;;;;;;18.91;54.58;101166.50;5068124;28;20040;-75
2022/06/07 09:55:01;;;;;;;29.77;27.73;;;;;;;18.96;54.57;101174.69;5066817;28;20546;-75
2022/06/07 09:57:37;;;;;;;35.15;32.70;;;;;;;19.01;54.94;101160.94;5070118;28;20135;-76
2022/06/07 10:00:17;;;;;;;33.85;31.27;;;;;;;19.07;55.23;101166.34;5072597;28;20028;-75
2022/06/07 10:03:10;;;;;;;30.50;28.42;;;;;;;19.11;55.25;101159.22;5069310;28;20025;-76
2022/06/07 10:06:13;;;;;;;31.42;29.13;;;;;;;19.15;54.83;101163.81;5069959;28;20043;-75
2022/06/07 10:08:51;;;;;;;31.13;28.65;;;;;;;19.18;54.18;101154.22;5075133;28;20051;-76
2022/06/07 10:11:35;;;;;;;32.33;30.23;;;;;;;19.24;54.54;101166.72;5070412;28;20024;-77
2022/06/07 10:14:19;;;;;;;32.97;30.83;;;;;;;19.29;54.58;101163.94;5069830;28;20103;-78
2022/06/07 10:17:22;;;;;;;32.00;29.80;;;;;;;19.35;54.42;101164.69;5070465;28;20033;-76
2022/06/07 10:19:54;;;;;;;32.35;29.80;;;;;;;19.39;54.35;101152.84;5070457;28;20040;-76
2022/06/07 10:22:45;;;;;;;31.85;29.52;;;;;;;19.44;54.17;101155.53;5070008;28;20064;-76
2022/06/07 10:25:14;;;;;;;30.15;28.27;;;;;;;19.49;53.98;101162.06;5063767;28;20033;-76
2022/06/07 10:28:15;;;;;;;32.75;30.70;;;;;;;19.55;53.69;101166.38;5069769;28;20385;-75
2022/06/07 10:31:01;;;;;;;29.65;27.85;;;;;;;19.60;53.61;101155.34;5069291;28;20032;-77
2022/06/07 10:33:51;;;;;;;32.47;30.10;;;;;;;19.65;53.72;101161.59;5065410;28;20472;-76
2022/06/07 10:36:42;;;;;;;31.65;29.63;;;;;;;19.72;53.62;101154.97;5085974;28;20044;-75
2022/06/07 10:39:23;;;;;;;33.45;31.30;;;;;;;19.75;53.72;101155.19;5070266;28;20060;-76
2022/06/07 10:41:57;;;;;;;33.90;31.20;;;;;;;19.81;53.81;101150.47;5069775;28;20028;-75
2022/06/07 10:44:35;;;;;;;34.83;32.10;;;;;;;19.84;53.37;101158.91;5069385;28;20032;-76
2022/06/07 10:47:10;;;;;;;30.40;28.58;;;;;;;19.89;53.41;101160.75;5085871;28;20036;-76
2022/06/07 10:49:52;;;;;;;34.58;32.15;;;;;;;19.93;53.37;101156.31;5069663;28;20481;-76
2022/06/07 10:52:41;;;;;;;30.38;28.58;;;;;;;19.98;53.01;101161.75;5066576;28;20043;-77
2022/06/07 10:55:09;;;;;;;32.85;30.75;;;;;;;20.02;52.84;101153.72;5069595;28;20036;-80
2022/06/07 10:57:43;;;;;;;33.28;31.17;;;;;;;20.07;53.05;101153.66;5060709;28;20029;-76
2022/06/07 11:00:38;;;;;;;33.22;31.23;;;;;;;20.10;52.81;101153.06;5060871;28;20036;-76
2022/06/07 11:03:38;;;;;;;34.00;31.63;;;;;;;20.14;52.48;101140.38;5068539;28;20090;-76
2022/06/07 11:09:19;;;;;;;33.40;30.88;;;;;;;20.23;52.52;101151.50;5068181;28;20396;-76
2022/06/07 11:11:47;;;;;;;34.10;32.05;;;;;;;20.27;51.97;101141.56;5067865;28;20033;-81
2022/06/07 11:14:25;;;;;;;30.05;28.45;;;;;;;20.30;52.22;101141.78;5069462;28;20068;-78
2022/06/07 11:17:13;;;;;;;34.08;31.77;;;;;;;20.36;52.07;101142.53;5071202;28;20036;-76
2022/06/07 11:19:38;;;;;;;;;;;;;;;20.39;51.89;101141.13;5054214;28;20391;-76
2022/06/07 11:22:05;;;;;;;32.75;30.52;;;;;;;20.41;52.23;101141.59;5069216;28;20388;-77
2022/06/07 11:24:50;;;;;;;33.75;31.77;;;;;;;20.45;52.24;101146.19;5064664;28;20048;-76
2022/06/07 11:27:19;;;;;;;30.83;29.08;;;;;;;20.50;52.06;101148.06;5068631;28;20070;-76
2022/06/07 11:29:45;;;;;;;;;;;;;;;20.53;51.75;101142.75;5068490;28;20035;-83
2022/06/07 11:32:47;;;;;;;30.23;28.52;;;;;;;20.59;51.80;101137.22;5070174;28;19924;-76
2022/06/07 11:35:52;;;;;;;30.98;29.17;;;;;;;20.63;51.91;101130.03;5070219;28;20035;-77
2022/06/07 11:38:17;;;;;;;30.60;28.92;;;;;;;20.66;52.00;101134.91;5068989;28;20461;-79
2022/06/07 11:40:44;;;;;;;33.60;31.60;;;;;;;20.71;51.62;101135.66;5065382;28;20036;-78
2022/06/07 11:43:47;;;;;;;32.25;30.27;;;;;;;20.77;51.76;101138.31;5066175;28;20029;-78